.
WxDataArchive / Data Records for 2009-10-14
2009-10-13 October 2009 2009-10-15

Data Records for Wednesday, 14 October 2009

Time	Temp	Chill	HIndex	Humid	Dewpt	 Wind 	HiWind	WindDir	Rain 	Barom 
-----	----	-----	------	-----	-----	------	------	-------	-----	----- 
00:00	38.6	38.6	38.6	75	31.4	0	0	---	0.00	30.334 
00:05	38.5	38.5	38.5	76	31.6	0	0	---	0.00	30.334 
00:10	38.3	38.3	38.3	76	31.4	0	0	---	0.00	30.334 
00:15	38.2	38.2	38.2	77	31.6	0	0	---	0.00	30.334 
00:20	38.0	38.0	38.0	78	31.8	0	0	---	0.00	30.334 
00:25	37.9	37.9	37.9	79	32.0	0	0	---	0.00	30.334 
00:30	37.8	37.8	37.8	80	32.2	0	0	---	0.00	30.333 
00:35	37.6	37.6	37.6	80	32.0	0	0	---	0.00	30.333 
00:40	37.5	37.5	37.5	81	32.2	0	0	---	0.00	30.333 
00:45	37.5	37.5	37.5	81	32.2	0	0	---	0.00	30.328 
00:50	37.5	37.5	37.5	81	32.2	0	0	---	0.00	30.328 
00:55	37.5	37.5	37.5	82	32.5	0	0	---	0.00	30.328 
01:00	37.5	37.5	37.5	82	32.5	0	0	---	0.00	30.334 
01:05	37.5	37.5	37.5	83	32.8	0	0	---	0.00	30.334 
01:10	37.5	37.5	37.5	83	32.8	0	0	---	0.00	30.334 
01:15	37.6	37.6	37.6	84	33.2	0	0	---	0.00	30.325 
01:20	37.6	37.6	37.6	84	33.2	0	0	---	0.00	30.325 
01:25	37.6	37.6	37.6	84	33.2	0	0	---	0.00	30.325 
01:30	37.6	37.6	37.6	84	33.2	0	0	---	0.00	30.325 
01:35	37.6	37.6	37.6	84	33.2	0	0	---	0.00	30.325 
01:40	37.8	37.8	37.8	84	33.4	0	0	---	0.00	30.325 
01:45	37.8	37.8	37.8	84	33.4	0	0	---	0.00	30.323 
01:50	37.8	37.8	37.8	84	33.4	0	0	---	0.00	30.323 
01:55	37.9	37.9	37.9	85	33.8	0	0	---	0.00	30.323 
02:00	37.9	37.9	37.9	85	33.8	0	0	---	0.00	30.320 
02:05	38.0	38.0	38.0	85	33.9	0	0	---	0.00	30.320 
02:10	38.0	38.0	38.0	84	33.6	0	0	---	0.00	30.320 
02:15	38.0	38.0	38.0	84	33.6	0	0	---	0.00	30.328 
02:20	38.0	38.0	38.0	84	33.6	0	0	---	0.00	30.328 
02:25	38.0	38.0	38.0	84	33.6	0	0	---	0.00	30.328 
02:30	38.2	38.2	38.2	83	33.5	0	1	90	0.00	30.322 
02:35	38.3	38.3	38.3	82	33.3	0	1	90	0.00	30.322 
02:40	38.5	38.5	38.5	81	33.2	0	1	90	0.00	30.322 
02:45	38.6	38.6	38.6	81	33.3	0	1	90	0.00	30.316 
02:50	38.8	38.8	38.8	80	33.2	0	1	90	0.00	30.316 
02:55	38.9	38.9	38.9	79	33.0	0	2	90	0.00	30.316 
03:00	38.9	38.9	38.9	79	33.0	0	2	90	0.00	30.309 
03:05	38.9	38.9	38.9	78	32.6	0	1	90	0.00	30.309 
03:10	39.1	39.1	39.1	78	32.8	0	2	68	0.00	30.309 
03:15	39.2	39.2	39.2	77	32.6	1	2	68	0.00	30.309 
03:20	39.2	39.2	39.2	76	32.3	0	1	68	0.00	30.309 
03:25	39.3	39.3	39.3	76	32.4	0	2	68	0.00	30.309 
03:30	39.3	39.3	39.3	76	32.4	0	2	68	0.00	30.312 
03:35	39.3	39.3	39.3	76	32.4	0	1	68	0.00	30.312 
03:40	39.5	39.5	39.5	76	32.6	0	3	68	0.00	30.312 
03:45	39.6	39.6	39.6	75	32.3	1	2	112	0.00	30.303 
03:50	39.8	39.8	39.8	75	32.5	1	2	112	0.00	30.303 
03:55	39.8	39.8	39.8	74	32.2	1	3	112	0.00	30.303 
04:00	39.9	39.9	39.9	75	32.6	0	2	112	0.00	30.299 
04:05	39.9	39.9	39.9	75	32.6	1	3	112	0.00	30.299 
04:10	39.9	39.9	39.9	75	32.6	0	2	112	0.00	30.299 
04:15	39.9	39.9	39.9	75	32.6	0	3	112	0.00	30.295 
04:20	39.9	39.9	39.9	73	32.0	2	6	112	0.00	30.295 
04:25	40.1	40.1	40.1	72	31.8	1	4	112	0.00	30.295 
04:30	40.1	40.1	40.1	72	31.8	1	3	112	0.00	30.288 
04:35	40.2	40.2	40.2	71	31.6	1	5	90	0.00	30.288 
04:40	40.3	40.3	40.3	71	31.7	2	6	90	0.00	30.288 
04:45	40.3	40.3	40.3	71	31.7	2	4	112	0.00	30.286 
04:50	40.5	40.5	40.5	71	31.8	1	6	90	0.00	30.286 
04:55	40.5	40.5	40.5	71	31.8	1	6	90	0.00	30.286 
05:00	40.5	40.5	40.5	72	32.2	1	3	90	0.00	30.286 
05:05	40.5	40.5	40.5	72	32.2	2	9	112	0.00	30.286 
05:10	40.5	40.5	40.5	72	32.2	2	4	112	0.00	30.286 
05:15	40.5	40.5	40.5	73	32.5	1	5	90	0.00	30.283 
05:20	40.5	40.5	40.5	73	32.5	2	5	90	0.00	30.283 
05:25	40.5	40.5	40.5	73	32.5	2	6	90	0.00	30.283 
05:30	40.5	40.5	40.5	74	32.9	1	5	90	0.00	30.282 
05:35	40.5	40.5	40.5	74	32.9	1	3	112	0.00	30.282 
05:40	40.5	40.5	40.5	74	32.9	2	5	90	0.00	30.282 
05:45	40.5	40.5	40.5	74	32.9	2	7	90	0.00	30.278 
05:50	40.5	40.5	40.5	75	33.2	1	5	90	0.00	30.278 
05:55	40.5	40.5	40.5	76	33.5	1	4	112	0.00	30.278 
06:00	40.5	40.5	40.5	76	33.5	2	10	90	0.00	30.281 
06:05	40.5	40.5	40.5	77	33.9	1	5	112	0.00	30.281 
06:10	40.5	40.5	40.5	78	34.2	1	7	90	0.00	30.281 
06:15	40.5	40.5	40.5	79	34.5	1	6	90	0.00	30.285 
06:20	40.3	40.3	40.3	80	34.6	1	4	90	0.00	30.285 
06:25	40.3	40.3	40.3	81	34.9	1	4	90	0.00	30.285 
06:30	40.2	40.2	40.2	81	34.8	1	3	68	0.00	30.285 
06:35	40.1	40.1	40.1	82	35.1	1	3	90	0.00	30.285 
06:40	40.1	40.1	40.1	83	35.4	0	2	90	0.00	30.285 
06:45	39.9	39.9	39.9	84	35.5	1	5	112	0.00	30.284 
06:50	39.9	39.9	39.9	84	35.5	0	1	112	0.01	30.284 
06:55	39.9	39.9	39.9	85	35.8	0	2	112	0.00	30.284 
07:00	39.9	39.9	39.9	85	35.8	0	2	112	0.00	30.284 
07:05	39.9	39.9	39.9	85	35.8	0	3	112	0.00	30.284 
07:10	39.8	39.8	39.8	86	36.0	1	2	112	0.00	30.284 
07:15	39.8	39.8	39.8	86	36.0	0	1	112	0.00	30.281 
07:20	39.8	39.8	39.8	87	36.3	0	3	112	0.01	30.281 
07:25	39.6	39.6	39.6	87	36.1	0	2	112	0.00	30.281 
07:30	39.6	39.6	39.6	87	36.1	0	2	112	0.00	30.277 
07:35	39.6	39.6	39.6	88	36.3	1	6	90	0.00	30.277 
07:40	39.6	39.6	39.6	88	36.3	1	5	90	0.00	30.277 
07:45	39.5	39.5	39.5	87	36.0	1	5	68	0.00	30.277 
07:50	39.6	39.6	39.6	87	36.1	1	4	112	0.00	30.277 
07:55	39.5	39.5	39.5	88	36.2	1	4	90	0.01	30.277 
08:00	39.5	39.5	39.5	88	36.2	1	4	90	0.00	30.275 
08:05	39.5	39.5	39.5	88	36.2	1	4	112	0.00	30.275 
08:10	39.3	39.3	39.3	88	36.0	1	9	90	0.00	30.275 
08:15	39.3	39.3	39.3	88	36.0	2	9	112	0.00	30.275 
08:20	39.3	39.3	39.3	88	36.0	3	10	112	0.00	30.275 
08:25	39.5	39.5	39.5	88	36.2	1	6	90	0.00	30.275 
08:30	39.5	39.5	39.5	88	36.2	1	4	90	0.00	30.274 
08:35	39.5	39.5	39.5	88	36.2	2	6	90	0.00	30.274 
08:40	39.5	39.5	39.5	88	36.2	1	5	90	0.00	30.274 
08:45	39.5	39.5	39.5	88	36.2	3	6	90	0.01	30.267 
08:50	39.5	39.5	39.5	88	36.2	2	10	90	0.00	30.267 
08:55	39.5	39.5	39.5	88	36.2	3	11	90	0.00	30.267 
09:00	39.5	39.5	39.5	89	36.5	2	6	90	0.00	30.272 
09:05	39.5	39.5	39.5	89	36.5	2	6	112	0.00	30.272 
09:10	39.6	39.6	39.6	89	36.6	2	5	112	0.00	30.272 
09:15	39.6	39.6	39.6	89	36.6	2	6	90	0.00	30.272 
09:20	39.8	39.8	39.8	89	36.8	2	5	90	0.00	30.272 
09:25	39.8	39.8	39.8	89	36.8	2	6	90	0.00	30.272 
09:30	39.9	39.9	39.9	89	36.9	1	4	90	0.00	30.274 
09:35	39.9	39.9	39.9	89	36.9	2	7	112	0.00	30.274 
09:40	40.1	40.1	40.1	89	37.1	2	10	90	0.00	30.274 
09:45	40.2	40.2	40.2	89	37.2	2	6	90	0.00	30.273 
09:50	40.2	40.2	40.2	88	36.9	2	7	112	0.00	30.273 
09:55	40.3	40.3	40.3	89	37.3	1	7	90	0.00	30.273 
10:00	40.5	40.5	40.5	89	37.5	2	6	90	0.00	30.266 
10:05	40.6	40.6	40.6	89	37.6	1	5	112	0.00	30.266 
10:10	40.6	40.6	40.6	89	37.6	3	7	112	0.00	30.266 
10:15	40.6	40.6	40.6	89	37.6	2	6	112	0.00	30.261 
10:20	40.6	40.6	40.6	89	37.6	2	5	90	0.00	30.261 
10:25	40.6	40.6	40.6	89	37.6	3	11	90	0.00	30.261 
10:30	40.5	40.5	40.5	89	37.5	2	6	90	0.00	30.259 
10:35	40.5	40.5	40.5	90	37.8	3	7	90	0.01	30.259 
10:40	40.5	40.5	40.5	90	37.8	2	6	112	0.01	30.259 
10:45	40.5	40.5	40.5	91	38.1	2	7	90	0.00	30.259 
10:50	40.3	40.3	40.3	91	37.9	2	6	90	0.01	30.259 
10:55	40.5	40.5	40.5	91	38.1	2	7	90	0.00	30.259 
11:00	40.5	40.5	40.5	92	38.4	2	7	90	0.00	30.256 
11:05	40.6	40.6	40.6	92	38.5	3	7	112	0.01	30.256 
11:10	40.6	40.6	40.6	92	38.5	3	6	112	0.00	30.256 
11:15	40.8	40.8	40.8	92	38.7	1	6	112	0.00	30.257 
11:20	40.8	40.8	40.8	92	38.7	3	6	112	0.01	30.257 
11:25	40.8	38.2	40.8	92	38.7	4	11	90	0.00	30.257 
11:30	40.9	40.9	40.9	92	38.8	3	8	90	0.00	30.259 
11:35	40.9	40.9	40.9	93	39.0	2	6	112	0.00	30.259 
11:40	41.1	41.1	41.1	93	39.2	2	5	90	0.00	30.259 
11:45	41.1	38.6	41.1	93	39.2	4	9	90	0.01	30.252 
11:50	41.1	41.1	41.1	93	39.2	2	7	90	0.00	30.252 
11:55	41.1	41.1	41.1	93	39.2	2	6	112	0.00	30.252 
12:00	41.2	41.2	41.2	92	39.1	3	9	90	0.00	30.245 
12:05	41.2	41.2	41.2	92	39.1	3	9	90	0.00	30.245 
12:10	41.2	41.2	41.2	92	39.1	2	9	90	0.00	30.245 
12:15	41.2	41.2	41.2	92	39.1	3	10	112	0.00	30.247 
12:20	41.2	41.2	41.2	92	39.1	2	7	90	0.00	30.247 
12:25	41.2	41.2	41.2	92	39.1	2	7	90	0.00	30.247 
12:30	41.2	41.2	41.2	92	39.1	2	5	90	0.00	30.247 
12:35	41.2	41.2	41.2	92	39.1	3	5	90	0.00	30.247 
12:40	41.1	41.1	41.1	92	39.0	3	11	90	0.01	30.247 
12:45	41.2	41.2	41.2	92	39.1	2	5	90	0.00	30.245 
12:50	41.3	41.3	41.3	92	39.2	2	7	90	0.00	30.245 
12:55	41.3	41.3	41.3	92	39.2	2	8	90	0.00	30.245 
13:00	41.5	41.5	41.5	92	39.4	1	4	90	0.00	30.242 
13:05	41.6	41.6	41.6	93	39.7	1	4	90	0.00	30.242 
13:10	41.6	41.6	41.6	93	39.7	2	5	112	0.00	30.242 
13:15	41.5	41.5	41.5	92	39.4	3	6	90	0.00	30.229 
13:20	41.3	41.3	41.3	93	39.4	3	6	90	0.00	30.229 
13:25	41.3	41.3	41.3	93	39.4	3	6	90	0.00	30.229 
13:30	41.6	41.6	41.6	93	39.7	2	5	90	0.00	30.224 
13:35	41.6	41.6	41.6	93	39.7	3	7	90	0.00	30.224 
13:40	41.6	41.6	41.6	93	39.7	3	8	90	0.00	30.224 
13:45	41.8	39.4	41.8	92	39.6	4	9	90	0.00	30.211 
13:50	41.9	41.9	41.9	92	39.7	2	5	90	0.00	30.211 
13:55	41.9	41.9	41.9	91	39.5	3	12	90	0.00	30.211 
14:00	41.9	41.9	41.9	91	39.5	3	13	90	0.00	30.209 
14:05	41.9	39.5	41.9	90	39.2	4	13	90	0.00	30.209 
14:10	41.9	39.5	41.9	90	39.2	4	11	90	0.00	30.209 
14:15	41.8	41.8	41.8	89	38.8	3	9	90	0.00	30.205 
14:20	41.8	39.4	41.8	89	38.8	4	10	112	0.00	30.205 
14:25	41.9	41.9	41.9	89	38.9	2	7	90	0.00	30.205 
14:30	42.1	42.1	42.1	88	38.8	3	10	112	0.00	30.194 
14:35	42.1	39.7	42.1	88	38.8	4	7	90	0.00	30.194 
14:40	42.2	42.2	42.2	88	38.9	1	4	112	0.00	30.194 
14:45	42.3	42.3	42.3	89	39.3	2	6	112	0.00	30.180 
14:50	42.3	42.3	42.3	89	39.3	1	5	90	0.00	30.180 
14:55	42.5	42.5	42.5	89	39.5	3	7	112	0.00	30.180 
15:00	42.5	42.5	42.5	88	39.2	3	7	90	0.00	30.162 
15:05	42.6	42.6	42.6	88	39.3	2	7	90	0.00	30.162 
15:10	42.8	42.8	42.8	88	39.5	2	7	90	0.00	30.162 
15:15	42.9	42.9	42.9	87	39.3	3	9	112	0.00	30.147 
15:20	42.9	40.7	42.9	87	39.3	4	14	90	0.00	30.147 
15:25	42.9	40.7	42.9	86	39.0	4	14	90	0.00	30.147 
15:30	42.8	40.6	42.8	85	38.6	4	10	90	0.00	30.147 
15:35	42.8	42.8	42.8	85	38.6	3	7	90	0.00	30.147 
15:40	42.9	40.7	42.9	85	38.7	4	11	112	0.00	30.147 
15:45	42.9	42.9	42.9	85	38.7	3	10	90	0.00	30.146 
15:50	42.9	42.9	42.9	85	38.7	3	7	90	0.00	30.146 
15:55	43.1	43.1	43.1	84	38.6	3	12	90	0.00	30.146 
16:00	43.1	43.1	43.1	84	38.6	3	13	112	0.00	30.137 
16:05	43.1	40.9	43.1	84	38.6	4	10	90	0.00	30.137 
16:10	43.2	43.2	43.2	84	38.7	3	7	90	0.00	30.137 
16:15	43.3	41.1	43.3	84	38.8	4	9	90	0.00	30.134 
16:20	43.3	43.3	43.3	84	38.8	3	7	90	0.00	30.134 
16:25	43.5	43.5	43.5	84	39.0	2	7	112	0.00	30.134 
16:30	43.5	43.5	43.5	84	39.0	3	11	90	0.00	30.115 
16:35	43.5	41.4	43.5	84	39.0	4	9	90	0.00	30.115 
16:40	43.6	41.5	43.6	84	39.1	4	11	90	0.00	30.115 
16:45	43.6	43.6	43.6	83	38.8	3	7	90	0.00	30.116 
16:50	43.8	43.8	43.8	83	39.0	3	6	90	0.00	30.116 
16:55	43.6	43.6	43.6	83	38.8	3	11	90	0.00	30.116 
17:00	43.6	43.6	43.6	83	38.8	3	9	90	0.00	30.128 
17:05	43.6	43.6	43.6	84	39.1	2	7	90	0.00	30.128 
17:10	43.6	43.6	43.6	84	39.1	2	5	90	0.00	30.128 
17:15	43.6	43.6	43.6	84	39.1	2	6	112	0.00	30.131 
17:20	43.6	43.6	43.6	84	39.1	2	9	112	0.00	30.131 
17:25	43.5	43.5	43.5	84	39.0	3	7	112	0.00	30.131 
17:30	43.6	43.6	43.6	83	38.8	3	7	90	0.00	30.131 
17:35	43.6	43.6	43.6	84	39.1	1	4	90	0.00	30.131 
17:40	43.6	43.6	43.6	84	39.1	1	3	90	0.00	30.131 
17:45	43.6	43.6	43.6	85	39.4	1	4	112	0.00	30.128 
17:50	43.5	43.5	43.5	85	39.3	2	5	112	0.00	30.128 
17:55	43.3	43.3	43.3	85	39.1	2	4	90	0.00	30.128 
18:00	43.3	43.3	43.3	85	39.1	2	5	90	0.00	30.128 
18:05	43.3	43.3	43.3	86	39.4	1	4	90	0.00	30.128 
18:10	43.2	43.2	43.2	85	39.0	2	4	90	0.00	30.128 
18:15	43.1	43.1	43.1	85	38.9	2	7	90	0.00	30.130 
18:20	43.1	43.1	43.1	85	38.9	1	4	45	0.00	30.130 
18:25	43.1	43.1	43.1	86	39.2	1	5	90	0.00	30.130 
18:30	43.1	43.1	43.1	86	39.2	2	5	112	0.00	30.124 
18:35	42.8	42.8	42.8	86	38.9	2	6	68	0.00	30.124 
18:40	42.5	42.5	42.5	86	38.6	2	6	112	0.00	30.124 
18:45	42.3	42.3	42.3	85	38.1	3	7	112	0.00	30.121 
18:50	42.2	42.2	42.2	86	38.3	2	7	112	0.00	30.121 
18:55	42.2	42.2	42.2	86	38.3	2	5	90	0.00	30.121 
19:00	42.1	42.1	42.1	86	38.2	3	10	112	0.00	30.110 
19:05	41.9	41.9	41.9	86	38.0	3	7	90	0.00	30.110 
19:10	41.8	41.8	41.8	86	37.9	2	6	90	0.00	30.110 
19:15	41.6	41.6	41.6	85	37.4	3	13	90	0.00	30.109 
19:20	41.6	41.6	41.6	84	37.1	3	8	112	0.00	30.109 
19:25	41.5	41.5	41.5	83	36.7	2	8	90	0.00	30.109 
19:30	41.3	41.3	41.3	83	36.5	3	6	90	0.00	30.101 
19:35	41.3	41.3	41.3	83	36.5	2	5	90	0.00	30.101 
19:40	41.3	41.3	41.3	82	36.2	2	7	90	0.00	30.101 
19:45	41.2	38.7	41.2	82	36.1	4	14	90	0.00	30.100 
19:50	41.2	41.2	41.2	82	36.1	3	10	112	0.00	30.100 
19:55	41.2	41.2	41.2	82	36.1	2	7	112	0.00	30.100 
20:00	41.2	41.2	41.2	82	36.1	1	5	90	0.00	30.104 
20:05	41.2	41.2	41.2	82	36.1	2	9	112	0.00	30.104 
20:10	41.1	41.1	41.1	82	36.0	3	7	112	0.00	30.104 
20:15	41.1	41.1	41.1	81	35.7	2	10	68	0.00	30.104 
20:20	41.1	41.1	41.1	81	35.7	3	11	112	0.00	30.104 
20:25	41.1	41.1	41.1	81	35.7	2	6	90	0.00	30.104 
20:30	40.9	40.9	40.9	81	35.5	3	10	112	0.00	30.112 
20:35	40.9	40.9	40.9	81	35.5	1	3	112	0.00	30.112 
20:40	40.9	40.9	40.9	81	35.5	1	4	112	0.00	30.112 
20:45	40.9	40.9	40.9	81	35.5	2	5	112	0.00	30.118 
20:50	40.9	40.9	40.9	80	35.2	1	5	90	0.00	30.118 
20:55	40.9	40.9	40.9	81	35.5	1	4	90	0.00	30.118 
21:00	40.8	40.8	40.8	81	35.4	1	4	90	0.00	30.120 
21:05	40.8	40.8	40.8	81	35.4	1	4	68	0.00	30.120 
21:10	40.8	40.8	40.8	81	35.4	1	5	90	0.00	30.120 
21:15	40.8	40.8	40.8	81	35.4	1	4	112	0.00	30.119 
21:20	40.8	40.8	40.8	81	35.4	1	4	112	0.00	30.119 
21:25	40.8	40.8	40.8	81	35.4	1	3	68	0.00	30.119 
21:30	40.8	40.8	40.8	80	35.1	1	5	112	0.00	30.119 
21:35	40.8	40.8	40.8	80	35.1	2	7	112	0.00	30.119 
21:40	40.8	40.8	40.8	80	35.1	2	7	90	0.00	30.119 
21:45	40.8	40.8	40.8	79	34.8	2	5	112	0.00	30.111 
21:50	40.6	40.6	40.6	79	34.6	2	7	112	0.00	30.111 
21:55	40.6	40.6	40.6	79	34.6	2	6	112	0.00	30.111 
22:00	40.6	40.6	40.6	79	34.6	1	5	90	0.00	30.107 
22:05	40.6	40.6	40.6	79	34.6	2	9	90	0.00	30.107 
22:10	40.6	40.6	40.6	79	34.6	2	6	90	0.00	30.107 
22:15	40.6	40.6	40.6	79	34.6	1	6	90	0.00	30.103 
22:20	40.6	40.6	40.6	79	34.6	1	9	90	0.00	30.103 
22:25	40.6	40.6	40.6	78	34.3	2	5	90	0.00	30.103 
22:30	40.6	40.6	40.6	78	34.3	1	5	112	0.00	30.086 
22:35	40.6	40.6	40.6	78	34.3	1	4	112	0.00	30.086 
22:40	40.6	40.6	40.6	78	34.3	2	7	90	0.00	30.086 
22:45	40.6	40.6	40.6	78	34.3	3	9	112	0.00	30.073 
22:50	40.6	40.6	40.6	78	34.3	2	6	112	0.00	30.073 
22:55	40.6	40.6	40.6	78	34.3	2	5	112	0.00	30.073 
23:00	40.8	40.8	40.8	78	34.5	1	6	90	0.00	30.082 
23:05	40.8	40.8	40.8	78	34.5	1	4	112	0.00	30.082 
23:10	40.8	40.8	40.8	78	34.5	3	7	90	0.00	30.082 
23:15	40.8	40.8	40.8	78	34.5	3	9	112	0.00	30.068 
23:20	40.8	40.8	40.8	78	34.5	2	7	90	0.00	30.068 
23:25	40.8	40.8	40.8	79	34.8	2	5	90	0.00	30.068 
23:30	40.8	40.8	40.8	79	34.8	2	5	90	0.00	30.060 
23:35	40.8	40.8	40.8	78	34.5	2	7	112	0.00	30.060 
23:40	40.8	40.8	40.8	78	34.5	2	7	90	0.00	30.060 
23:45	40.9	40.9	40.9	79	34.9	1	5	90	0.00	30.050 
23:50	40.8	40.8	40.8	78	34.5	2	13	90	0.00	30.050 
23:55	40.8	40.8	40.8	78	34.5	2	7	90	0.00	30.050 

CoCoRaHS
IN-AL-39
A2 Web Hosting
Creative Commons License
GoDaddy
search engine by freefind advanced

loaded 2018-11-12 19:18:30 • last modified 2010-11-18 10:43:29
Privacy PolicyDisclaimer
• wx.awcolley.com is powered by PmWiki v.2002016 •
• all content (unless otherwise noted) © 2018 A W Colley